AAL440 KIAH-KTUL
Flight info
| Callsign | AAL440 |
|---|---|
| Flight time | 1h 0m |
| Altitude | 32000 |
| Route | STYCK8 WTSON DCT BYP DCT TUL DCT |
| Aircraft | A319/M-SDE3FGHIRWY/LB1 |
Departure
| Time | 2026-04-24 07:29 |
|---|---|
| Airport | George Bush Intercontinental Airport (KIAH) |
Arrival
| Time | 2026-04-24 08:30 |
|---|---|
| Airport | Tulsa International Airport (KTUL) |
| Time | Latitude | Longitude | Altitude | Speed | Heading |
|---|---|---|---|---|---|
| 2026-04-24 06:52 | 29.98458 | -95.33886 | 101 ft | 0 kts | 81° |
| 2026-04-24 06:58 | 29.98458 | -95.33887 | 101 ft | 0 kts | 81° |
| 2026-04-24 07:18 | 29.98458 | -95.33891 | 109 ft | 2 kts | 81° |
| 2026-04-24 07:19 | 29.98455 | -95.33914 | 100 ft | 3 kts | 89° |
| 2026-04-24 07:19 | 29.98456 | -95.33937 | 99 ft | 3 kts | 104° |
| 2026-04-24 07:19 | 29.98463 | -95.33958 | 100 ft | 3 kts | 124° |
| 2026-04-24 07:19 | 29.98466 | -95.33963 | 99 ft | 0 kts | 130° |
| 2026-04-24 07:21 | 29.98453 | -95.33958 | 102 ft | 6 kts | 169° |
| 2026-04-24 07:22 | 29.98389 | -95.33952 | 101 ft | 13 kts | 179° |
| 2026-04-24 07:22 | 29.98328 | -95.34015 | 101 ft | 12 kts | 290° |
| 2026-04-24 07:22 | 29.98374 | -95.34116 | 100 ft | 16 kts | 281° |
| 2026-04-24 07:22 | 29.98377 | -95.34252 | 100 ft | 18 kts | 270° |
| 2026-04-24 07:23 | 29.98369 | -95.34408 | 100 ft | 20 kts | 248° |
| 2026-04-24 07:23 | 29.98324 | -95.34564 | 99 ft | 22 kts | 270° |
| 2026-04-24 07:23 | 29.98324 | -95.34746 | 101 ft | 24 kts | 271° |
| 2026-04-24 07:23 | 29.98325 | -95.34942 | 101 ft | 25 kts | 270° |
| 2026-04-24 07:24 | 29.98325 | -95.35133 | 99 ft | 23 kts | 266° |
| 2026-04-24 07:24 | 29.98325 | -95.35289 | 100 ft | 20 kts | 328° |
| 2026-04-24 07:24 | 29.98478 | -95.35381 | 99 ft | 30 kts | 333° |
| 2026-04-24 07:24 | 29.98638 | -95.35480 | 99 ft | 20 kts | 332° |
| 2026-04-24 07:25 | 29.98752 | -95.35549 | 100 ft | 14 kts | 333° |
| 2026-04-24 07:25 | 29.98832 | -95.35605 | 100 ft | 14 kts | 311° |
| 2026-04-24 07:25 | 29.98820 | -95.35693 | 102 ft | 8 kts | 238° |
| 2026-04-24 07:25 | 29.98788 | -95.35763 | 104 ft | 15 kts | 243° |
| 2026-04-24 07:26 | 29.98734 | -95.35874 | 104 ft | 15 kts | 235° |
| 2026-04-24 07:26 | 29.98692 | -95.35948 | 101 ft | 6 kts | 240° |
| 2026-04-24 07:26 | 29.98690 | -95.35952 | 101 ft | 0 kts | 241° |
| 2026-04-24 07:26 | 29.98688 | -95.35958 | 101 ft | 0 kts | 242° |
| 2026-04-24 07:27 | 29.98679 | -95.35975 | 100 ft | 6 kts | 241° |
| 2026-04-24 07:27 | 29.98643 | -95.36037 | 99 ft | 12 kts | 219° |
| 2026-04-24 07:27 | 29.98604 | -95.36032 | 99 ft | 0 kts | 152° |
| 2026-04-24 07:29 | 29.98477 | -95.35953 | 98 ft | 62 kts | 152° |
| 2026-04-24 07:29 | 29.97845 | -95.35568 | 97 ft | 138 kts | 152° |
| 2026-04-24 07:29 | 29.96862 | -95.34969 | 395 ft | 168 kts | 153° |
| 2026-04-24 07:29 | 29.95887 | -95.34343 | 1407 ft | 149 kts | 153° |
| 2026-04-24 07:30 | 29.95025 | -95.33751 | 2357 ft | 140 kts | 153° |
| 2026-04-24 07:30 | 29.94212 | -95.33167 | 3107 ft | 136 kts | 154° |
| 2026-04-24 07:30 | 29.93318 | -95.32875 | 3673 ft | 139 kts | 187° |
| 2026-04-24 07:30 | 29.92393 | -95.33431 | 3964 ft | 171 kts | 225° |
| 2026-04-24 07:31 | 29.91760 | -95.34710 | 4392 ft | 195 kts | 238° |
| 2026-04-24 07:31 | 29.91088 | -95.36191 | 4854 ft | 220 kts | 238° |
| 2026-04-24 07:31 | 29.90591 | -95.37963 | 5440 ft | 247 kts | 260° |
| 2026-04-24 07:31 | 29.90898 | -95.40008 | 6072 ft | 274 kts | 294° |
| 2026-04-24 07:32 | 29.92220 | -95.41621 | 6965 ft | 290 kts | 325° |
| 2026-04-24 07:32 | 29.94176 | -95.42308 | 7904 ft | 300 kts | 352° |
| 2026-04-24 07:32 | 29.95561 | -95.42306 | 8597 ft | 301 kts | 2° |
| 2026-04-24 07:32 | 29.97628 | -95.41905 | 9627 ft | 302 kts | 7° |
| 2026-04-24 07:33 | 29.99710 | -95.41450 | 10419 ft | 309 kts | 7° |
| 2026-04-24 07:33 | 30.01881 | -95.41038 | 10932 ft | 324 kts | 5° |
| 2026-04-24 07:33 | 30.04180 | -95.40699 | 11477 ft | 338 kts | 2° |
| 2026-04-24 07:33 | 30.07391 | -95.40418 | 12057 ft | 359 kts | 356° |
| 2026-04-24 07:34 | 30.09068 | -95.40631 | 12490 ft | 360 kts | 344° |
| 2026-04-24 07:34 | 30.11443 | -95.41529 | 13231 ft | 361 kts | 334° |
| 2026-04-24 07:34 | 30.13700 | -95.42802 | 14079 ft | 360 kts | 330° |
| 2026-04-24 07:34 | 30.15960 | -95.44101 | 14710 ft | 367 kts | 330° |
| 2026-04-24 07:35 | 30.18286 | -95.45393 | 15377 ft | 371 kts | 331° |
| 2026-04-24 07:35 | 30.20615 | -95.46679 | 16239 ft | 370 kts | 331° |
| 2026-04-24 07:35 | 30.22943 | -95.47953 | 17044 ft | 372 kts | 331° |
| 2026-04-24 07:35 | 30.25293 | -95.49249 | 17717 ft | 377 kts | 331° |
| 2026-04-24 07:36 | 30.27643 | -95.50548 | 18371 ft | 382 kts | 331° |
| 2026-04-24 07:36 | 30.30077 | -95.51908 | 19012 ft | 385 kts | 330° |
| 2026-04-24 07:36 | 30.32490 | -95.53285 | 19673 ft | 388 kts | 329° |
| 2026-04-24 07:36 | 30.34911 | -95.54680 | 20347 ft | 390 kts | 329° |
| 2026-04-24 07:37 | 30.37309 | -95.56067 | 20994 ft | 392 kts | 329° |
| 2026-04-24 07:37 | 30.39768 | -95.57472 | 21613 ft | 395 kts | 329° |
| 2026-04-24 07:37 | 30.42246 | -95.58878 | 22199 ft | 398 kts | 329° |
| 2026-04-24 07:37 | 30.44751 | -95.60279 | 22793 ft | 401 kts | 330° |
| 2026-04-24 07:38 | 30.47279 | -95.61684 | 23321 ft | 405 kts | 329° |
| 2026-04-24 07:38 | 30.49833 | -95.63121 | 23743 ft | 410 kts | 329° |
| 2026-04-24 07:38 | 30.52404 | -95.64577 | 24141 ft | 413 kts | 329° |
| 2026-04-24 07:38 | 30.54996 | -95.66043 | 24530 ft | 417 kts | 329° |
| 2026-04-24 07:39 | 30.57637 | -95.67477 | 24951 ft | 421 kts | 330° |
| 2026-04-24 07:39 | 30.60311 | -95.68889 | 25409 ft | 423 kts | 331° |
| 2026-04-24 07:39 | 30.63000 | -95.70294 | 25901 ft | 425 kts | 330° |
| 2026-04-24 07:39 | 30.65703 | -95.71712 | 26375 ft | 426 kts | 330° |
| 2026-04-24 07:40 | 30.68404 | -95.73137 | 26846 ft | 427 kts | 330° |
| 2026-04-24 07:40 | 30.71112 | -95.74578 | 27295 ft | 428 kts | 330° |
| 2026-04-24 07:40 | 30.73820 | -95.76026 | 27724 ft | 430 kts | 329° |
| 2026-04-24 07:40 | 30.76540 | -95.77486 | 28153 ft | 431 kts | 329° |
| 2026-04-24 07:41 | 30.79237 | -95.78937 | 28537 ft | 433 kts | 329° |
| 2026-04-24 07:41 | 30.81977 | -95.80414 | 28929 ft | 435 kts | 329° |
| 2026-04-24 07:41 | 30.84734 | -95.81898 | 29328 ft | 438 kts | 329° |
| 2026-04-24 07:41 | 30.87499 | -95.83383 | 29757 ft | 438 kts | 329° |
| 2026-04-24 07:42 | 30.90264 | -95.84865 | 30270 ft | 436 kts | 329° |
| 2026-04-24 07:42 | 30.93012 | -95.86337 | 30788 ft | 432 kts | 329° |
| 2026-04-24 07:42 | 30.95736 | -95.87797 | 31320 ft | 429 kts | 329° |
| 2026-04-24 07:42 | 30.98437 | -95.89251 | 31738 ft | 427 kts | 329° |
| 2026-04-24 07:43 | 31.01120 | -95.90698 | 31843 ft | 424 kts | 328° |
| 2026-04-24 07:43 | 31.03794 | -95.92140 | 31867 ft | 423 kts | 328° |
| 2026-04-24 07:43 | 31.09125 | -95.95011 | 31854 ft | 422 kts | 328° |
| 2026-04-24 07:44 | 31.14700 | -95.97329 | 31857 ft | 436 kts | 342° |
| 2026-04-24 07:44 | 31.20668 | -95.98657 | 31853 ft | 437 kts | 342° |
| 2026-04-24 07:45 | 31.26635 | -96.00003 | 31854 ft | 436 kts | 341° |
| 2026-04-24 07:45 | 31.32590 | -96.01357 | 31852 ft | 436 kts | 341° |
| 2026-04-24 07:46 | 31.38517 | -96.02709 | 31873 ft | 436 kts | 341° |
| 2026-04-24 07:46 | 31.44478 | -96.04073 | 31851 ft | 437 kts | 341° |
| 2026-04-24 07:47 | 31.50451 | -96.05428 | 31837 ft | 437 kts | 342° |
| 2026-04-24 07:47 | 31.56415 | -96.06783 | 31837 ft | 437 kts | 342° |
| 2026-04-24 07:48 | 31.62396 | -96.08142 | 31828 ft | 437 kts | 342° |
| 2026-04-24 07:48 | 31.68377 | -96.09507 | 31844 ft | 438 kts | 341° |
| 2026-04-24 07:49 | 31.74359 | -96.10882 | 31823 ft | 439 kts | 341° |
| 2026-04-24 07:49 | 31.80358 | -96.12257 | 31820 ft | 440 kts | 341° |
| 2026-04-24 07:50 | 31.86366 | -96.13640 | 31819 ft | 440 kts | 341° |
| 2026-04-24 07:50 | 31.92374 | -96.15023 | 31824 ft | 440 kts | 341° |
| 2026-04-24 07:51 | 31.98401 | -96.16402 | 31833 ft | 441 kts | 342° |
| 2026-04-24 07:51 | 32.04424 | -96.17787 | 31828 ft | 441 kts | 342° |
| 2026-04-24 07:52 | 32.10450 | -96.19177 | 31826 ft | 441 kts | 342° |
| 2026-04-24 07:52 | 32.16481 | -96.20575 | 31823 ft | 441 kts | 342° |
| 2026-04-24 07:53 | 32.22675 | -96.21162 | 31834 ft | 452 kts | 352° |
| 2026-04-24 07:53 | 32.28972 | -96.21260 | 31816 ft | 452 kts | 352° |
| 2026-04-24 07:54 | 32.35261 | -96.21367 | 31808 ft | 452 kts | 352° |
| 2026-04-24 07:54 | 32.41553 | -96.21482 | 31804 ft | 452 kts | 352° |
| 2026-04-24 07:55 | 32.47846 | -96.21588 | 31822 ft | 453 kts | 352° |
| 2026-04-24 07:55 | 32.54157 | -96.21683 | 31809 ft | 453 kts | 352° |
| 2026-04-24 07:56 | 32.60416 | -96.21790 | 31808 ft | 453 kts | 352° |
| 2026-04-24 07:56 | 32.66725 | -96.21904 | 31808 ft | 453 kts | 352° |
| 2026-04-24 07:57 | 32.73035 | -96.22015 | 31809 ft | 453 kts | 352° |
| 2026-04-24 07:57 | 32.79349 | -96.22121 | 31815 ft | 454 kts | 352° |
| 2026-04-24 07:58 | 32.85671 | -96.22232 | 31805 ft | 454 kts | 352° |
| 2026-04-24 07:58 | 32.92003 | -96.22348 | 31794 ft | 455 kts | 352° |
| 2026-04-24 07:59 | 32.98329 | -96.22457 | 31786 ft | 455 kts | 352° |
| 2026-04-24 07:59 | 33.04672 | -96.22567 | 31789 ft | 456 kts | 353° |
| 2026-04-24 08:00 | 33.11017 | -96.22672 | 31772 ft | 456 kts | 353° |
| 2026-04-24 08:00 | 33.17369 | -96.22775 | 31770 ft | 457 kts | 353° |
| 2026-04-24 08:01 | 33.23726 | -96.22883 | 31773 ft | 457 kts | 353° |
| 2026-04-24 08:01 | 33.30089 | -96.23003 | 31767 ft | 457 kts | 353° |
| 2026-04-24 08:02 | 33.36454 | -96.23118 | 31762 ft | 457 kts | 353° |
| 2026-04-24 08:02 | 33.42817 | -96.23224 | 31769 ft | 457 kts | 353° |
| 2026-04-24 08:03 | 33.49186 | -96.23330 | 31764 ft | 457 kts | 353° |
| 2026-04-24 08:03 | 33.55529 | -96.23127 | 31774 ft | 463 kts | 3° |
| 2026-04-24 08:04 | 33.61922 | -96.22066 | 31768 ft | 464 kts | 3° |
| 2026-04-24 08:04 | 33.68316 | -96.20980 | 31758 ft | 464 kts | 3° |
| 2026-04-24 08:05 | 33.74711 | -96.19911 | 31751 ft | 464 kts | 3° |
| 2026-04-24 08:05 | 33.81101 | -96.18846 | 31765 ft | 463 kts | 4° |
| 2026-04-24 08:06 | 33.87486 | -96.17776 | 31752 ft | 463 kts | 4° |
| 2026-04-24 08:06 | 33.93872 | -96.16704 | 31748 ft | 463 kts | 4° |
| 2026-04-24 08:07 | 34.00266 | -96.15637 | 31744 ft | 463 kts | 4° |
| 2026-04-24 08:07 | 34.06650 | -96.14562 | 31751 ft | 463 kts | 4° |
| 2026-04-24 08:08 | 34.12993 | -96.13485 | 31750 ft | 463 kts | 4° |
| 2026-04-24 08:09 | 34.22566 | -96.11861 | 31740 ft | 463 kts | 4° |
| 2026-04-24 08:09 | 34.28948 | -96.10780 | 31728 ft | 463 kts | 4° |
| 2026-04-24 08:10 | 34.35325 | -96.09707 | 31750 ft | 463 kts | 4° |
| 2026-04-24 08:10 | 34.41698 | -96.08627 | 31730 ft | 463 kts | 4° |
| 2026-04-24 08:11 | 34.48087 | -96.07538 | 31735 ft | 463 kts | 4° |
| 2026-04-24 08:11 | 34.54470 | -96.06450 | 31729 ft | 463 kts | 4° |
| 2026-04-24 08:12 | 34.60858 | -96.05357 | 31583 ft | 464 kts | 4° |
| 2026-04-24 08:12 | 34.64053 | -96.04809 | 31333 ft | 465 kts | 4° |
| 2026-04-24 08:12 | 34.67263 | -96.04259 | 31099 ft | 466 kts | 4° |
| 2026-04-24 08:12 | 34.70481 | -96.03711 | 30856 ft | 467 kts | 4° |
| 2026-04-24 08:13 | 34.73702 | -96.03161 | 30617 ft | 468 kts | 4° |
| 2026-04-24 08:13 | 34.76932 | -96.02607 | 30380 ft | 469 kts | 4° |
| 2026-04-24 08:13 | 34.80156 | -96.02054 | 29886 ft | 469 kts | 3° |
| 2026-04-24 08:13 | 34.83406 | -96.01498 | 28533 ft | 473 kts | 4° |
| 2026-04-24 08:14 | 34.86670 | -96.00939 | 27238 ft | 475 kts | 4° |
| 2026-04-24 08:14 | 34.89910 | -96.00383 | 25999 ft | 477 kts | 4° |
| 2026-04-24 08:14 | 34.93212 | -95.99815 | 24827 ft | 480 kts | 4° |
| 2026-04-24 08:14 | 34.96510 | -95.99248 | 23963 ft | 477 kts | 4° |
| 2026-04-24 08:15 | 34.99798 | -95.98681 | 23051 ft | 476 kts | 4° |
| 2026-04-24 08:15 | 35.03070 | -95.98119 | 22172 ft | 473 kts | 4° |
| 2026-04-24 08:15 | 35.06312 | -95.97560 | 21371 ft | 469 kts | 4° |
| 2026-04-24 08:15 | 35.09525 | -95.97002 | 20586 ft | 465 kts | 4° |
| 2026-04-24 08:16 | 35.12718 | -95.96445 | 19815 ft | 462 kts | 4° |
| 2026-04-24 08:16 | 35.15890 | -95.95893 | 19066 ft | 459 kts | 4° |
| 2026-04-24 08:16 | 35.17982 | -95.95530 | 18588 ft | 457 kts | 4° |
| 2026-04-24 08:16 | 35.21122 | -95.94984 | 17867 ft | 453 kts | 4° |
| 2026-04-24 08:17 | 35.24228 | -95.94446 | 17222 ft | 447 kts | 4° |
| 2026-04-24 08:17 | 35.27265 | -95.93918 | 16791 ft | 437 kts | 3° |
| 2026-04-24 08:17 | 35.30269 | -95.93397 | 16186 ft | 434 kts | 3° |
| 2026-04-24 08:17 | 35.33248 | -95.92882 | 15702 ft | 429 kts | 3° |
| 2026-04-24 08:18 | 35.36132 | -95.92377 | 15583 ft | 406 kts | 3° |
| 2026-04-24 08:18 | 35.38849 | -95.91894 | 15400 ft | 385 kts | 2° |
| 2026-04-24 08:18 | 35.41459 | -95.91434 | 15078 ft | 377 kts | 2° |
| 2026-04-24 08:18 | 35.44041 | -95.90985 | 14699 ft | 372 kts | 2° |
| 2026-04-24 08:19 | 35.46594 | -95.90546 | 14294 ft | 369 kts | 2° |
| 2026-04-24 08:19 | 35.49131 | -95.90111 | 13880 ft | 367 kts | 2° |
| 2026-04-24 08:19 | 35.51647 | -95.89671 | 13486 ft | 365 kts | 4° |
| 2026-04-24 08:19 | 35.54071 | -95.88690 | 13039 ft | 372 kts | 25° |
| 2026-04-24 08:20 | 35.56097 | -95.86700 | 12601 ft | 377 kts | 46° |
| 2026-04-24 08:20 | 35.57693 | -95.84204 | 12128 ft | 376 kts | 50° |
| 2026-04-24 08:20 | 35.59559 | -95.82024 | 11664 ft | 367 kts | 29° |
| 2026-04-24 08:20 | 35.61854 | -95.80825 | 11247 ft | 353 kts | 6° |
| 2026-04-24 08:21 | 35.64244 | -95.80746 | 10786 ft | 336 kts | 342° |
| 2026-04-24 08:21 | 35.66355 | -95.81748 | 10342 ft | 317 kts | 319° |
| 2026-04-24 08:21 | 35.67907 | -95.83567 | 9910 ft | 304 kts | 303° |
| 2026-04-24 08:21 | 35.69228 | -95.85584 | 9528 ft | 301 kts | 302° |
| 2026-04-24 08:22 | 35.70731 | -95.87421 | 9530 ft | 314 kts | 318° |
| 2026-04-24 08:22 | 35.72701 | -95.88473 | 9525 ft | 308 kts | 340° |
| 2026-04-24 08:22 | 35.74822 | -95.88714 | 9414 ft | 306 kts | 349° |
| 2026-04-24 08:22 | 35.76949 | -95.88864 | 8897 ft | 303 kts | 349° |
| 2026-04-24 08:23 | 35.79041 | -95.89008 | 8453 ft | 299 kts | 349° |
| 2026-04-24 08:23 | 35.81118 | -95.89152 | 7934 ft | 299 kts | 349° |
| 2026-04-24 08:23 | 35.83189 | -95.89300 | 7464 ft | 295 kts | 349° |
| 2026-04-24 08:23 | 35.85232 | -95.89446 | 6887 ft | 294 kts | 349° |
| 2026-04-24 08:24 | 35.87271 | -95.89593 | 6320 ft | 292 kts | 349° |
| 2026-04-24 08:24 | 35.89258 | -95.89730 | 6082 ft | 278 kts | 349° |
| 2026-04-24 08:24 | 35.91154 | -95.89857 | 5726 ft | 267 kts | 349° |
| 2026-04-24 08:24 | 35.92965 | -95.89975 | 5417 ft | 257 kts | 352° |
| 2026-04-24 08:25 | 35.94772 | -95.89889 | 5148 ft | 259 kts | 356° |
| 2026-04-24 08:25 | 35.96545 | -95.89770 | 4868 ft | 251 kts | 356° |
| 2026-04-24 08:25 | 35.98259 | -95.89660 | 4565 ft | 243 kts | 355° |
| 2026-04-24 08:25 | 35.99927 | -95.89551 | 4254 ft | 237 kts | 356° |
| 2026-04-24 08:26 | 36.01531 | -95.89444 | 3953 ft | 231 kts | 356° |
| 2026-04-24 08:26 | 36.03120 | -95.89339 | 3648 ft | 225 kts | 357° |
| 2026-04-24 08:26 | 36.04661 | -95.89232 | 3365 ft | 219 kts | 352° |
| 2026-04-24 08:26 | 36.06173 | -95.89137 | 3089 ft | 214 kts | 356° |
| 2026-04-24 08:27 | 36.07621 | -95.89040 | 2789 ft | 202 kts | 356° |
| 2026-04-24 08:27 | 36.08997 | -95.88949 | 2557 ft | 189 kts | 356° |
| 2026-04-24 08:27 | 36.10244 | -95.88863 | 2320 ft | 170 kts | 356° |
| 2026-04-24 08:27 | 36.11368 | -95.88789 | 2117 ft | 156 kts | 359° |
| 2026-04-24 08:28 | 36.12418 | -95.88722 | 1914 ft | 146 kts | 1° |
| 2026-04-24 08:28 | 36.13418 | -95.88657 | 1736 ft | 142 kts | 1° |
| 2026-04-24 08:28 | 36.14394 | -95.88593 | 1554 ft | 139 kts | 3° |
| 2026-04-24 08:28 | 36.15356 | -95.88532 | 1334 ft | 138 kts | 2° |
| 2026-04-24 08:29 | 36.16323 | -95.88467 | 1163 ft | 140 kts | 4° |
| 2026-04-24 08:29 | 36.17293 | -95.88403 | 963 ft | 140 kts | 4° |
| 2026-04-24 08:29 | 36.18274 | -95.88343 | 765 ft | 143 kts | 5° |
| 2026-04-24 08:29 | 36.19241 | -95.88278 | 654 ft | 127 kts | 4° |
| 2026-04-24 08:30 | 36.19955 | -95.88227 | 649 ft | 83 kts | 4° |
| 2026-04-24 08:30 | 36.20376 | -95.88198 | 641 ft | 36 kts | 2° |
| 2026-04-24 08:30 | 36.20565 | -95.88239 | 640 ft | 24 kts | 324° |
| 2026-04-24 08:30 | 36.20605 | -95.88338 | 641 ft | 10 kts | 230° |
| 2026-04-24 08:31 | 36.20542 | -95.88358 | 641 ft | 9 kts | 184° |
| 2026-04-24 08:31 | 36.20466 | -95.88363 | 637 ft | 13 kts | 184° |
| 2026-04-24 08:31 | 36.20375 | -95.88370 | 638 ft | 13 kts | 183° |
| 2026-04-24 08:31 | 36.20289 | -95.88376 | 642 ft | 11 kts | 184° |
| 2026-04-24 08:32 | 36.20199 | -95.88397 | 644 ft | 15 kts | 195° |
| 2026-04-24 08:32 | 36.20110 | -95.88433 | 645 ft | 13 kts | 199° |
| 2026-04-24 08:32 | 36.20000 | -95.88480 | 649 ft | 18 kts | 199° |
| 2026-04-24 08:32 | 36.19898 | -95.88523 | 653 ft | 14 kts | 198° |
| 2026-04-24 08:33 | 36.19815 | -95.88558 | 654 ft | 12 kts | 199° |
| 2026-04-24 08:33 | 36.19735 | -95.88591 | 655 ft | 14 kts | 198° |
| 2026-04-24 08:33 | 36.19627 | -95.88636 | 654 ft | 17 kts | 199° |
| 2026-04-24 08:33 | 36.19522 | -95.88707 | 652 ft | 18 kts | 216° |
| 2026-04-24 08:34 | 36.19425 | -95.88802 | 652 ft | 17 kts | 219° |
| 2026-04-24 08:34 | 36.19328 | -95.88863 | 652 ft | 15 kts | 207° |
| 2026-04-24 08:34 | 36.19280 | -95.88894 | 653 ft | 0 kts | 220° |